Flight Track Log - Related Links

Times and Time Zones

All times are in EDT time to prevent confusion due to time zone crossing. See the SWA1910 flight status page for this flight to view local times or setup timezone preferences in your user account.

Time Position Orientation Groundspeed Altitude Reporting Facility
EDT Latitude Longitude Course Direction KTS MPH feet Rate Location/Type
Sun 07:33:37 PM 39.1333 -76.6333 180° South 192 221 3,300  Level Potomac TRACON
Sun 07:34:31 PM 39.1000 -76.5833 131° Southeast 213 245 5,800 3,100 Climbing Potomac TRACON
Sun 07:35:37 PM 39.0333 -76.5167 142° Southeast 276 318 9,500 3,381 Climbing Potomac TRACON
Sun 07:36:37 PM 38.9500 -76.4833 163° South 339 390 12,900 2,300 Climbing Potomac TRACON
Sun 07:37:37 PM 38.8500 -76.4833 180° South 344 396 14,100 600 Climbing Potomac TRACON
Sun 07:38:37 PM 38.7833 -76.5500 218° Southwest 325 374 14,100 900 Level Potomac TRACON
Sun 07:39:00 PM 38.5871 -76.9438 180° South  Level Estimated
Sun 07:39:37 PM 38.7000 -76.6167 212° Southwest 327 376 15,900  Level Potomac TRACON
Sun 07:40:35 PM 38.6228 -76.6786 212° Southwest 351 404 18,700 1,576 Climbing Washington Center
Sun 07:41:35 PM 38.5347 -76.7250 202° Southwest 357 411 19,000 950 Climbing Washington Center
Sun 07:42:35 PM 38.4308 -76.7103 174° South 350 403 20,600 2,050 Climbing Washington Center
Sun 07:43:35 PM 38.3203 -76.6928 173° South 368 423 23,100 2,500 Climbing Washington Center
Sun 07:44:35 PM 38.2161 -76.6806 175° South 396 456 25,600 1,650 Climbing Washington Center
Sun 07:45:35 PM 38.0975 -76.6631 173° South 416 479 26,400 1,700 Climbing Washington Center
Sun 07:46:35 PM 37.9808 -76.6481 174° South 424 488 29,000 2,000 Climbing Washington Center
Sun 07:47:35 PM 37.8558 -76.6306 174° South 434 499 30,400 2,050 Climbing Washington Center
Sun 07:48:35 PM 37.7289 -76.6131 174° South 448 516 33,100 1,800 Climbing Washington Center
Sun 07:49:35 PM 37.6039 -76.5983 175° South 453 521 34,000 450 Climbing Washington Center
Sun 07:50:35 PM 37.4789 -76.5836 175° South 458 527 34,000 1,000 Level Washington Center
Sun 07:51:35 PM 37.3639 -76.6108 191° South 437 503 36,000 2,100 Climbing Washington Center
Sun 07:52:35 PM 37.2550 -76.6511 196° South 424 488 38,200 1,700 Climbing Washington Center
Sun 07:53:35 PM 37.1483 -76.6942 198° South 413 475 39,400 900 Climbing Washington Center
Sun 07:54:35 PM 37.0372 -76.7367 197° South 413 475 40,000 300 Climbing Washington Center
Sun 07:55:35 PM 36.9283 -76.7767 196° South 413 475 40,000  Level Washington Center
Sun 07:56:35 PM 36.8217 -76.8167 197° South 413 475 40,000  Level Washington Center
Sun 07:57:35 PM 36.7106 -76.8589 197° South 413 475 40,000  Level Washington Center
Sun 07:58:35 PM 36.5997 -76.8986 196° South 418 481 40,000  Level Washington Center
Sun 07:59:35 PM 36.4886 -76.9381 196° South 418 481 40,000  Level Washington Center
Sun 08:00:35 PM 36.3692 -76.9850 198° South 418 481 40,000  Level Washington Center
Sun 08:01:35 PM 36.2603 -77.0242 196° South 418 481 40,000  Level Washington Center
Sun 08:02:35 PM 36.1492 -77.0633 196° South 418 481 40,000  Level Washington Center
Sun 08:03:35 PM 36.0400 -77.1050 197° South 418 481 40,000  Level Washington Center
Sun 08:04:35 PM 35.9436 -77.1392 196° South 418 481 40,000  Level Washington Center
Sun 08:05:35 PM 35.8222 -77.1828 196° South 418 481 40,000  Level Washington Center
Sun 08:06:35 PM 35.7111 -77.2189 195° South 418 481 40,000  Level Washington Center
Sun 08:07:35 PM 35.5978 -77.2600 196° South 418 481 40,000  Level Washington Center
Sun 08:08:35 PM 35.4867 -77.2986 196° South 418 481 40,000  Level Washington Center
Sun 08:09:35 PM 35.3733 -77.3369 195° South 418 481 40,000  Level Washington Center
Sun 08:10:35 PM 35.2644 -77.3778 197° South 418 481 40,000  Level Washington Center
Sun 08:11:35 PM 35.1553 -77.4136 195° South 418 481 40,000  Level Washington Center
Sun 08:12:35 PM 35.0461 -77.4542 197° South 418 481 40,000  Level Washington Center
Sun 08:13:35 PM 34.9372 -77.4897 195° South 418 481 40,000  Level Washington Center
Sun 08:14:35 PM 34.8258 -77.5300 197° South 418 481 40,000  Level Washington Center
Sun 08:15:35 PM 34.7292 -77.5683 198° South 418 481 40,000  Level Washington Center
Sun 08:16:35 PM 34.6222 -77.6061 196° South 413 475 40,000  Level Washington Center
Sun 08:17:35 PM 34.5153 -77.6436 196° South 413 475 40,000  Level Washington Center
Sun 08:18:35 PM 34.4039 -77.6811 196° South 413 475 40,000  Level Washington Center
Sun 08:19:35 PM 34.2969 -77.7189 196° South 413 475 40,000  Level Washington Center
Sun 08:20:35 PM 34.1711 -77.7581 194° South 419 482 40,000  Level Washington Center
Sun 08:22:04 PM 34.0197 -77.8092 196° South 404 465 40,000  Level Jacksonville Center
Sun 08:23:04 PM 33.9089 -77.8506 197° South 409 471 40,000  Level Jacksonville Center
Sun 08:24:04 PM 33.7956 -77.8872 195° South 415 478 40,000  Level Jacksonville Center
Sun 08:25:04 PM 33.6864 -77.9258 196° South 415 478 40,000  Level Jacksonville Center
Sun 08:26:04 PM 33.5794 -77.9617 196° South 415 478 40,000  Level Jacksonville Center
Sun 08:27:04 PM 33.4703 -77.9978 195° South 415 478 40,000  Level Jacksonville Center
Sun 08:28:04 PM 33.3611 -78.0358 196° South 415 478 40,000  Level Jacksonville Center
Sun 08:29:04 PM 33.2539 -78.0717 196° South 415 478 40,000  Level Jacksonville Center
Sun 08:30:04 PM 33.1447 -78.1072 195° South 415 478 40,000  Level Jacksonville Center
Sun 08:31:04 PM 33.0375 -78.1428 196° South 415 478 40,000  Level Jacksonville Center
Sun 08:32:04 PM 32.9283 -78.1806 196° South 410 472 40,000  Level Jacksonville Center
Sun 08:33:04 PM 32.8211 -78.2158 195° South 410 472 40,000  Level Jacksonville Center
Sun 08:34:04 PM 32.7119 -78.2511 195° South 410 472 40,000  Level Jacksonville Center
Sun 08:35:04 PM 32.6025 -78.2864 195° South 415 478 40,000  Level Jacksonville Center
Sun 08:36:04 PM 32.4933 -78.3239 196° South 415 478 40,000  Level Jacksonville Center
Sun 08:37:04 PM 32.3858 -78.3589 195° South 415 478 40,000  Level Jacksonville Center
Sun 08:38:04 PM 32.2664 -78.4017 197° South 410 472 40,000  Level Jacksonville Center
Sun 08:39:04 PM 32.1550 -78.4367 195° South 410 472 40,000  Level Jacksonville Center
Sun 08:40:04 PM 32.0478 -78.4736 196° South 415 478 40,000  Level Jacksonville Center
Sun 08:41:03 PM 31.9403 -78.5058 194° South 415 478 40,000  Level Jacksonville Center
Sun 08:42:04 PM 31.8331 -78.5425 196° South 409 471 40,000  Level Jacksonville Center
Sun 08:43:04 PM 31.7236 -78.5769 195° South 412 474 40,000  Level Jacksonville Center
Sun 08:44:04 PM 31.6161 -78.6136 196° South 407 468 40,000  Level Jacksonville Center
Sun 08:45:04 PM 31.5069 -78.6506 196° South 407 468 40,000  Level Jacksonville Center
Sun 08:46:04 PM 31.3994 -78.6844 195° South 407 468 40,000  Level Jacksonville Center
Sun 08:47:04 PM 31.2900 -78.7186 195° South 407 468 40,000  Level Jacksonville Center
Sun 08:48:03 PM 31.1806 -78.7550 196° South 406 467 40,000  Level Jacksonville Center
Sun 08:49:04 PM 31.0731 -78.7864 194° South 401 461 40,000  Level Jacksonville Center
Sun 08:50:04 PM 30.9678 -78.8250 197° South 414 476 40,000  Level Jacksonville Center
Sun 08:51:44 PM 30.7975 -78.8783 195° South 399 459 40,000  Level Miami Center
Sun 08:52:44 PM 30.6886 -78.9147 196° South 404 465 40,000  Level Miami Center
Sun 08:53:44 PM 30.5778 -78.9464 194° South 413 475 40,000  Level Miami Center
Sun 08:54:44 PM 30.4750 -78.9803 196° South 413 475 40,000  Level Miami Center
Sun 08:55:44 PM 30.3681 -79.0192 197° South 408 470 40,000  Level Miami Center
Sun 08:56:44 PM 30.2633 -79.0650 201° Southwest 401 461 40,000  Level Miami Center
Sun 08:57:44 PM 30.1583 -79.1108 201° Southwest 406 467 40,000  Level Miami Center
Sun 08:58:44 PM 30.0575 -79.1567 201° Southwest 401 461 40,000  Level Miami Center
Sun 08:59:44 PM 29.9689 -79.2289 215° Southwest 388 447 40,000  Level Miami Center
Sun 09:00:44 PM 29.8800 -79.2989 214° Southwest 393 452 40,000  Level Miami Center
Sun 09:01:44 PM 29.7831 -79.3564 207° Southwest 398 458 40,000  Level Miami Center
Sun 09:02:44 PM 29.6983 -79.4333 218° Southwest 398 458 40,000  Level Miami Center
Sun 09:03:44 PM 29.6056 -79.4956 210° Southwest 398 458 40,000  Level Miami Center
Sun 09:04:44 PM 29.5167 -79.5647 214° Southwest 398 458 40,000  Level Miami Center
Sun 09:05:44 PM 29.4256 -79.6292 212° Southwest 398 458 40,000  Level Miami Center
Sun 09:06:44 PM 29.3367 -79.6961 213° Southwest 398 458 40,000  Level Miami Center
Sun 09:07:44 PM 29.2458 -79.7603 212° Southwest 393 452 40,000  Level Miami Center
Sun 09:08:44 PM 29.1547 -79.8267 212° Southwest 393 452 40,000 -350 Level Miami Center
Sun 09:09:44 PM 29.0656 -79.8933 213° Southwest 393 452 39,300 -1,750 Descending Miami Center
Sun 09:10:44 PM 28.9747 -79.9572 212° Southwest 393 452 36,500 -2,700 Descending Miami Center
Sun 09:11:44 PM 28.8833 -80.0258 213° Southwest 393 452 33,900 -2,450 Descending Miami Center
Sun 09:12:44 PM 28.7944 -80.0894 212° Southwest 393 452 31,600 -2,250 Descending Miami Center
Sun 09:13:44 PM 28.7094 -80.1533 213° Southwest 388 447 29,400 -2,200 Descending Miami Center
Sun 09:14:44 PM 28.6267 -80.2100 211° Southwest 369 425 27,200 -2,150 Descending Miami Center
Sun 09:15:44 PM 28.5461 -80.2714 214° Southwest 358 412 25,100 -1,600 Descending Miami Center
Sun 09:16:44 PM 28.4772 -80.3542 227° Southwest 346 398 24,000 -900 Descending Miami Center
Sun 09:17:44 PM 28.4353 -80.4522 244° Southwest 335 386 23,300 -800 Descending Miami Center
Sun 09:18:44 PM 28.3972 -80.5475 246° West 340 391 22,400 -950 Descending Miami Center
Sun 09:19:44 PM 28.3594 -80.6361 244° Southwest 340 391 21,400 -1,000 Descending Miami Center
Sun 09:20:44 PM 28.3236 -80.7314 247° West 340 391 20,400 -700 Descending Miami Center
Sun 09:21:44 PM 28.2856 -80.8222 245° Southwest 328 377 20,000 -200 Descending Miami Center
Sun 09:22:44 PM 28.2494 -80.9175 247° West 333 383 20,000  Level Miami Center
Sun 09:23:44 PM 28.2033 -81.0053 239° Southwest 333 383 20,000  Level Miami Center
Sun 09:24:44 PM 28.1144 -81.0419 200° South 327 376 20,000  Level Miami Center
Sun 09:25:44 PM 28.0258 -81.0764 199° South 326 375 20,000  Level Miami Center
Sun 09:26:44 PM 27.9392 -81.1131 200° South 331 381 20,000  Level Miami Center
Sun 09:27:44 PM 27.8419 -81.1517 199° South 331 381 20,000  Level Miami Center
Sun 09:28:44 PM 27.7511 -81.1881 200° South 341 392 20,000  Level Miami Center
Sun 09:29:44 PM 27.6625 -81.2222 199° South 341 392 20,000  Level Miami Center
Sun 09:30:44 PM 27.5739 -81.2589 200° South 341 392 20,000  Level Miami Center
Sun 09:31:44 PM 27.4828 -81.2950 199° South 341 392 20,000 -500 Level Miami Center
Sun 09:32:44 PM 27.3964 -81.3292 199° South 341 392 19,000 -1,300 Descending Miami Center
Sun 09:33:44 PM 27.3117 -81.3608 198° South 331 381 17,400 -1,900 Descending Miami Center
Sun 09:34:44 PM 27.2336 -81.3928 200° South 331 381 15,200 -2,150 Descending Miami Center
Sun 09:35:44 PM 27.1511 -81.4292 201° Southwest 331 381 13,100 -2,050 Descending Miami Center
Sun 09:36:44 PM 27.0664 -81.4611 199° South 331 381 11,100 -1,550 Descending Miami Center
Sun 09:37:44 PM 26.9744 -81.4667 183° South 308 354 10,000 -550 Descending Miami Center
Sun 09:38:44 PM 26.9047 -81.4267 153° Southeast 303 349 10,000  Level Miami Center
Sun 09:39:44 PM 26.8286 -81.3911 157° South 308 354 10,000  Level Miami Center
Sun 09:40:44 PM 26.7347 -81.3922 181° South 295 339 10,000  Level Miami Center
Sun 09:41:44 PM 26.6547 -81.4144 194° South 301 346 10,000  Level Miami Center
Sun 09:42:44 PM 26.6042 -81.4939 235° Southwest 295 339 10,000  Level Miami Center
Sun 09:44:00 PM 26.5672 -81.6363 197° South  Level Estimated
Sun 09:51:00 PM 26.5333 -81.7500 318° Northwest  Level FlightAware Approximate
Sun 09:52:00 PM 26.5362 -81.7552 318° Northwest  Level Estimated
Sun 09:53:00 PM 26.5333 -81.7500 318° Northwest  Level FlightAware Approximate
Sun 09:54:00 PM 26.5362 -81.7552 318° Northwest  Level Estimated
Sun 09:55:00 PM 26.5333 -81.7500 318° Northwest  Level FlightAware Approximate
Sun 09:56:00 PM 26.5362 -81.7552 318° Northwest  Level Estimated
Sun 09:57:00 PM 26.5333 -81.7500 318° Northwest  Level FlightAware Approximate
Sun 09:58:00 PM 26.5362 -81.7552 318° Northwest  Level Estimated
Sun 09:59:00 PM 26.5333 -81.7500 318° Northwest  Level FlightAware Approximate
Sun 10:00:00 PM 26.5362 -81.7552 318° Northwest  Level Estimated
Sun 10:01:00 PM 26.5333 -81.7500 318° Northwest  Level FlightAware Approximate
Sun 10:02:00 PM 26.5362 -81.7552 318° Northwest  Level Estimated

Login

Don't have an account? Register now (free) for customized features, flight alerts, and more!